Ashburn, Missouri
Current Conditions -  °F | °C
As of 3:35 AM on Monday 22 Dec 2014 (Local Time) from KHAE Reporting Station
Overcast Overcast  
Wind Chill: 37°   Ceiling: 3500
Heat Index: 43°   Visibility: 10mi
Dew Point: 32°   Wind: 10mph
Humidity: 66%   Direction: 130°SE
Pressure: 29.8"   Gusts: NA
Location:  39.54°N, 91.17°W
Report Text: KHAE 220935Z AUTO 13009KT 10SM OVC035 06/00 A2980 RMK AO2
Loading
Personal Weather Stations






























Interactive Weather Map New forecast layout! Learn more

10-Day Weather Forecast

Advertisements
Track Severe Weather on mobile